createdAt,value
2022-10-17T00:01:07.986Z,98120.97
2022-10-17T00:03:38.107Z,98115.16
2022-10-17T00:06:12.526Z,98118.06
2022-10-17T00:08:42.793Z,98121.59
2022-10-17T00:11:17.589Z,98119.94
2022-10-17T00:13:49.631Z,98125.53
2022-10-17T00:16:27.009Z,98123.06
2022-10-17T00:18:55.367Z,98124.69
2022-10-17T00:21:24.924Z,98126.56
2022-10-17T00:23:53.744Z,98135.09
2022-10-17T00:26:22.263Z,98135.09
2022-10-17T00:28:52.815Z,98135.31
2022-10-17T00:31:23.378Z,98134.47
2022-10-17T00:33:52.177Z,98139.25
2022-10-17T00:36:22.492Z,98139.66
2022-10-17T00:38:58.625Z,98144.44
2022-10-17T00:41:31.210Z,98138.81
2022-10-17T00:44:03.117Z,98146.09
2022-10-17T00:46:34.272Z,98142.56
2022-10-17T00:49:10.140Z,98143.78
2022-10-17T00:51:49.193Z,98142.13
2022-10-17T00:54:20.521Z,98138.38
2022-10-17T00:56:49.093Z,98135.28
2022-10-17T00:59:20.842Z,98142.56
2022-10-17T01:02:02.229Z,98139.25
2022-10-17T01:04:30.018Z,98147.75
2022-10-17T01:06:58.100Z,98145.47
2022-10-17T01:09:27.486Z,98144.25
2022-10-17T01:12:41.227Z,98147.13
2022-10-17T01:15:17.161Z,98138.63
2022-10-17T01:18:31.882Z,98137.81
2022-10-17T01:21:12.397Z,98136.59
2022-10-17T01:24:21.414Z,98144.06
2022-10-17T01:27:10.490Z,98135.72
2022-10-17T01:29:54.966Z,98139.03
2022-10-17T01:32:36.260Z,98146.94
2022-10-17T01:35:23.061Z,98145.06
2022-10-17T01:38:36.903Z,98152.34
2022-10-17T01:41:33.389Z,98153.97
2022-10-17T01:44:35.448Z,98149.19
2022-10-17T01:47:16.050Z,98144.22
2022-10-17T01:49:46.625Z,98141.50
2022-10-17T01:52:26.812Z,98143.19
2022-10-17T01:55:04.571Z,98132.19
2022-10-17T01:57:46.330Z,98139.44
2022-10-17T02:00:24.274Z,98140.47
2022-10-17T02:03:00.336Z,98124.69
2022-10-17T02:05:41.488Z,98120.75
2022-10-17T02:08:11.725Z,98125.94
2022-10-17T02:10:55.088Z,98123.22
2022-10-17T02:14:08.639Z,98136.56
2022-10-17T02:16:44.673Z,98127.63
2022-10-17T02:19:39.485Z,98125.13
2022-10-17T02:22:10.037Z,98124.91
2022-10-17T02:24:55.151Z,98127.63
2022-10-17T02:27:38.259Z,98124.72
2022-10-17T02:30:46.107Z,98123.69
2022-10-17T02:33:23.111Z,98125.78
2022-10-17T02:35:57.927Z,98119.50
2022-10-17T02:38:29.416Z,98119.72
2022-10-17T02:40:57.568Z,98123.47
2022-10-17T02:43:26.073Z,98122.84
2022-10-17T02:45:54.585Z,98126.56
2022-10-17T02:48:37.139Z,98120.97
2022-10-17T02:51:44.134Z,98131.78
2022-10-17T02:54:30.337Z,98121.16
2022-10-17T02:57:25.056Z,98131.34
2022-10-17T02:59:53.588Z,98119.31
2022-10-17T03:02:21.461Z,98129.06
2022-10-17T03:04:49.336Z,98132.81
2022-10-17T03:07:17.193Z,98133.22
2022-10-17T03:09:45.219Z,98138.19
2022-10-17T03:12:13.136Z,98138.38
2022-10-17T03:14:40.991Z,98137.13
2022-10-17T03:17:09.390Z,98136.31
2022-10-17T03:19:37.236Z,98136.50
2022-10-17T03:22:05.068Z,98130.28
2022-10-17T03:24:34.889Z,98138.59
2022-10-17T03:27:02.715Z,98134.25
2022-10-17T03:29:31.076Z,98129.84
2022-10-17T03:31:59.335Z,98137.97
2022-10-17T03:34:27.157Z,98138.38
2022-10-17T03:36:55.362Z,98142.94
2022-10-17T03:39:24.078Z,98136.72
2022-10-17T03:41:52.024Z,98138.59
2022-10-17T03:44:19.831Z,98147.31
2022-10-17T03:46:47.722Z,98134.63
2022-10-17T03:49:16.077Z,98142.94
2022-10-17T03:51:44.023Z,98138.34
2022-10-17T03:54:15.097Z,98138.56
2022-10-17T03:56:44.003Z,98142.25
2022-10-17T03:59:15.997Z,98149.72
2022-10-17T04:01:50.524Z,98148.47
2022-10-17T04:04:19.468Z,98158.63
2022-10-17T04:06:47.358Z,98161.72
2022-10-17T04:09:15.846Z,98170.25
2022-10-17T04:11:53.201Z,98157.16
2022-10-17T04:14:22.363Z,98163.94
2022-10-17T04:16:50.246Z,98162.69
2022-10-17T04:19:21.474Z,98173.66
2022-10-17T04:21:50.768Z,98172.84
2022-10-17T04:24:20.136Z,98181.50
2022-10-17T04:26:59.927Z,98179.00
2022-10-17T04:29:30.579Z,98188.78
2022-10-17T04:32:06.933Z,98184.63
2022-10-17T04:34:50.169Z,98193.34
2022-10-17T04:37:20.252Z,98192.31
2022-10-17T04:39:50.615Z,98187.53
2022-10-17T04:42:18.421Z,98190.03
2022-10-17T04:44:46.919Z,98189.22
2022-10-17T04:47:17.405Z,98189.22
2022-10-17T04:49:45.546Z,98182.78
2022-10-17T04:52:15.175Z,98187.41
2022-10-17T04:55:00.688Z,98186.81
2022-10-17T04:57:28.522Z,98182.03
2022-10-17T05:00:05.673Z,98183.72
2022-10-17T05:02:52.143Z,98187.06
2022-10-17T05:05:21.031Z,98185.19
2022-10-17T05:07:52.150Z,98178.97
2022-10-17T05:10:23.664Z,98187.88
2022-10-17T05:12:53.551Z,98189.53
2022-10-17T05:15:24.348Z,98189.53
2022-10-17T05:17:57.843Z,98194.72
2022-10-17T05:20:28.297Z,98188.06
2022-10-17T05:22:58.471Z,98180.81
2022-10-17T05:25:29.266Z,98180.59
2022-10-17T05:27:57.102Z,98180.81
2022-10-17T05:30:25.068Z,98183.72
2022-10-17T05:32:58.031Z,98183.28
2022-10-17T05:35:25.976Z,98178.69
2022-10-17T05:37:54.990Z,98178.00
2022-10-17T05:40:25.433Z,98186.53
2022-10-17T05:42:54.908Z,98183.22
2022-10-17T05:45:23.907Z,98183.66
2022-10-17T05:47:52.288Z,98190.28
2022-10-17T05:50:22.126Z,98190.09
2022-10-17T05:53:16.805Z,98193.63
2022-10-17T05:55:57.870Z,98187.16
2022-10-17T06:01:27.544Z,98197.97
2022-10-17T06:03:55.369Z,98197.97
2022-10-17T06:06:23.493Z,98200.50
2022-10-17T06:08:52.178Z,98202.16
2022-10-17T06:11:25.392Z,98206.94
2022-10-17T06:13:53.214Z,98204.25
2022-10-17T06:16:25.389Z,98210.28
2022-10-17T06:18:53.220Z,98204.06
2022-10-17T06:21:30.162Z,98217.34
2022-10-17T06:24:06.177Z,98215.69
2022-10-17T06:26:36.949Z,98215.00
2022-10-17T06:29:08.053Z,98226.38
2022-10-17T06:31:48.692Z,98224.53
2022-10-17T06:34:17.121Z,98242.97
2022-10-17T06:36:47.299Z,98246.34
2022-10-17T06:39:15.622Z,98257.78
2022-10-17T06:42:09.376Z,98260.91
2022-10-17T06:44:47.315Z,98264.66
2022-10-17T06:47:38.301Z,98270.88
2022-10-17T06:50:32.021Z,98271.88
2022-10-17T06:53:20.070Z,98282.69
2022-10-17T06:56:14.442Z,98277.28
2022-10-17T06:58:59.218Z,98277.09
2022-10-17T07:01:32.592Z,98283.13
2022-10-17T07:04:02.073Z,98294.53
2022-10-17T07:06:32.432Z,98290.63
2022-10-17T07:09:07.067Z,98299.75
2022-10-17T07:11:37.499Z,98301.69
2022-10-17T07:14:05.336Z,98295.50
2022-10-17T07:16:35.029Z,98287.59
2022-10-17T07:19:19.373Z,98292.00
2022-10-17T07:21:47.636Z,98298.69
2022-10-17T07:24:16.682Z,98302.66
2022-10-17T07:26:48.946Z,98293.53
2022-10-17T07:29:17.049Z,98298.53
2022-10-17T07:31:59.324Z,98296.06
2022-10-17T07:34:31.201Z,98304.38
2022-10-17T07:36:58.972Z,98306.28
2022-10-17T07:39:26.880Z,98309.00
2022-10-17T07:41:56.016Z,98308.38
2022-10-17T07:44:25.118Z,98311.13
2022-10-17T07:46:54.893Z,98305.97
2022-10-17T07:49:22.894Z,98304.72
2022-10-17T07:51:50.920Z,98309.50
2022-10-17T07:54:18.755Z,98301.81
2022-10-17T07:56:50.585Z,98305.56
2022-10-17T07:59:19.727Z,98304.94
2022-10-17T08:01:47.629Z,98301.44
2022-10-17T08:04:16.871Z,98306.22
2022-10-17T08:06:44.713Z,98311.41
2022-10-17T08:09:12.611Z,98317.03
2022-10-17T08:11:40.456Z,98311.84
2022-10-17T08:14:08.289Z,98313.09
2022-10-17T08:16:36.356Z,98311.63
2022-10-17T08:19:04.881Z,98314.53
2022-10-17T08:21:32.733Z,98316.44
2022-10-17T08:24:02.823Z,98322.03
2022-10-17T08:26:30.826Z,98317.88
2022-10-17T08:28:58.752Z,98323.31
2022-10-17T08:31:27.398Z,98330.78
2022-10-17T08:33:58.064Z,98335.16
2022-10-17T08:36:25.878Z,98345.34
2022-10-17T08:38:53.656Z,98342.00
2022-10-17T08:41:46.085Z,98336.81
2022-10-17T08:44:48.426Z,98337.81
2022-10-17T08:47:29.411Z,98335.50
2022-10-17T08:50:02.185Z,98342.59
2022-10-17T08:52:55.782Z,98333.84
2022-10-17T08:55:40.006Z,98337.16
2022-10-17T08:58:33.334Z,98343.81
2022-10-17T09:01:29.610Z,98336.72
2022-10-17T09:07:36.812Z,98333.34
2022-10-17T09:10:17.444Z,98331.03
2022-10-17T09:13:09.920Z,98327.28
2022-10-17T09:16:27.312Z,98332.06
2022-10-17T09:19:08.768Z,98332.88
2022-10-17T09:21:52.205Z,98334.56
2022-10-17T09:24:33.677Z,98337.03
2022-10-17T09:27:02.286Z,98335.53
2022-10-17T09:29:35.460Z,98341.56
2022-10-17T09:32:21.040Z,98338.00
2022-10-17T09:34:49.420Z,98333.59
2022-10-17T09:37:18.521Z,98331.06
2022-10-17T09:39:46.669Z,98329.13
2022-10-17T09:42:21.466Z,98327.44
2022-10-17T09:45:16.668Z,98330.13
2022-10-17T09:47:57.583Z,98337.97
2022-10-17T09:50:31.401Z,98330.63
2022-10-17T09:53:36.065Z,98331.88
2022-10-17T09:56:11.833Z,98324.09
2022-10-17T09:58:48.466Z,98331.34
2022-10-17T10:01:31.140Z,98329.41
2022-10-17T10:04:12.532Z,98330.63
2022-10-17T10:07:00.413Z,98323.47
2022-10-17T10:09:36.845Z,98331.13
2022-10-17T10:12:22.880Z,98330.81
2022-10-17T10:14:54.621Z,98338.69
2022-10-17T10:17:44.427Z,98335.09
2022-10-17T10:21:11.085Z,98343.97
2022-10-17T10:23:44.867Z,98343.34
2022-10-17T10:26:25.768Z,98340.41
2022-10-17T10:28:59.044Z,98339.13
2022-10-17T10:31:37.792Z,98337.19
2022-10-17T10:34:20.569Z,98341.53
2022-10-17T10:36:59.538Z,98340.63
2022-10-17T10:39:55.084Z,98343.34
2022-10-17T10:42:36.952Z,98344.34
2022-10-17T10:45:29.245Z,98338.25
2022-10-17T10:48:16.522Z,98343.75
2022-10-17T10:50:57.472Z,98345.38
2022-10-17T10:53:35.439Z,98343.66
2022-10-17T10:56:22.978Z,98343.59
2022-10-17T10:59:13.351Z,98349.16
2022-10-17T11:02:16.608Z,98343.03
2022-10-17T11:05:05.892Z,98343.53
2022-10-17T11:07:46.849Z,98346.03
2022-10-17T11:10:29.701Z,98353.53
2022-10-17T11:13:19.332Z,98349.16
2022-10-17T11:15:58.159Z,98354.28
2022-10-17T11:18:52.590Z,98348.72
2022-10-17T11:22:00.659Z,98351.59
2022-10-17T11:24:43.115Z,98352.34
2022-10-17T11:27:11.154Z,98348.31
2022-10-17T11:29:42.225Z,98349.28
2022-10-17T11:32:42.896Z,98342.47
2022-10-17T11:35:36.784Z,98347.34
2022-10-17T11:38:36.289Z,98345.72
2022-10-17T11:41:05.912Z,98347.81
2022-10-17T11:43:54.206Z,98343.81
2022-10-17T11:46:26.134Z,98345.13
2022-10-17T11:49:20.099Z,98344.22
2022-10-17T11:52:51.321Z,98348.13
2022-10-17T11:55:20.142Z,98353.94
2022-10-17T11:58:32.711Z,98357.84
2022-10-17T12:01:33.821Z,98351.22
2022-10-17T12:04:20.018Z,98356.41
2022-10-17T12:07:30.266Z,98357.47
2022-10-17T12:10:31.398Z,98367.91
2022-10-17T12:13:28.634Z,98365.19
2022-10-17T12:16:36.987Z,98360.66
2022-10-17T12:19:06.533Z,98363.28
2022-10-17T12:21:55.876Z,98355.56
2022-10-17T12:25:01.550Z,98360.34
2022-10-17T12:27:48.518Z,98363.28
2022-10-17T12:30:25.224Z,98357.41
2022-10-17T12:33:22.452Z,98367.44
2022-10-17T12:36:11.772Z,98368.75
2022-10-17T12:38:39.610Z,98377.97
2022-10-17T12:41:07.593Z,98373.97
2022-10-17T12:47:04.020Z,98364.38
2022-10-17T12:49:53.125Z,98368.53
2022-10-17T12:52:32.898Z,98356.19
2022-10-17T12:55:19.300Z,98372.03
2022-10-17T12:58:10.885Z,98368.25
2022-10-17T13:01:11.787Z,98377.81
2022-10-17T13:03:46.152Z,98374.47
2022-10-17T13:06:26.982Z,98373.53
2022-10-17T13:09:17.712Z,98375.28
2022-10-17T13:11:47.018Z,98376.59
2022-10-17T13:14:19.791Z,98381.03
2022-10-17T13:17:10.163Z,98374.59
2022-10-17T13:19:45.153Z,98375.69
2022-10-17T13:22:20.439Z,98375.19
2022-10-17T13:24:50.588Z,98376.63
2022-10-17T13:27:29.707Z,98381.00
2022-10-17T13:30:01.460Z,98374.53
2022-10-17T13:32:39.782Z,98389.03
2022-10-17T13:35:24.410Z,98394.59
2022-10-17T13:37:54.168Z,98385.69
2022-10-17T13:40:49.528Z,98387.34
2022-10-17T13:43:26.208Z,98386.00
2022-10-17T13:46:38.050Z,98386.69
2022-10-17T13:49:31.625Z,98389.47
2022-10-17T13:52:04.820Z,98395.72
2022-10-17T13:54:41.898Z,98393.44
2022-10-17T13:57:23.163Z,98398.53
2022-10-17T14:00:01.706Z,98396.16
2022-10-17T14:02:41.893Z,98397.38
2022-10-17T14:05:20.043Z,98401.84
2022-10-17T14:08:21.759Z,98404.34
2022-10-17T14:10:48.749Z,98401.34
2022-10-17T14:13:35.926Z,98397.97
2022-10-17T14:16:04.782Z,98392.78
2022-10-17T14:18:36.873Z,98400.34
2022-10-17T14:24:26.685Z,98380.25
2022-10-17T14:26:59.149Z,98387.31
2022-10-17T14:29:50.097Z,98395.75
2022-10-17T14:32:18.610Z,98389.63
2022-10-17T14:34:47.267Z,98387.56
2022-10-17T14:37:46.332Z,98397.81
2022-10-17T14:40:27.421Z,98384.31
2022-10-17T14:42:59.208Z,98388.69
2022-10-17T14:45:35.215Z,98390.19
2022-10-17T14:48:22.478Z,98389.75
2022-10-17T14:51:09.688Z,98386.63
2022-10-17T14:53:39.620Z,98389.59
2022-10-17T14:56:35.246Z,98382.72
2022-10-17T14:59:07.562Z,98390.19
2022-10-17T15:01:38.976Z,98393.97
2022-10-17T15:04:10.777Z,98388.13
2022-10-17T15:06:40.611Z,98398.81
2022-10-17T15:09:10.152Z,98400.22
2022-10-17T15:11:38.742Z,98401.59
2022-10-17T15:14:06.577Z,98406.34
2022-10-17T15:16:35.243Z,98401.94
2022-10-17T15:19:03.087Z,98401.13
2022-10-17T15:21:40.540Z,98405.75
2022-10-17T15:24:10.408Z,98404.56
2022-10-17T15:26:38.784Z,98409.31
2022-10-17T15:29:07.646Z,98407.41
2022-10-17T15:31:35.997Z,98415.22
2022-10-17T15:34:03.822Z,98408.16
2022-10-17T15:36:41.539Z,98413.22
2022-10-17T15:39:10.901Z,98409.34
2022-10-17T15:41:38.763Z,98412.06
2022-10-17T15:44:06.709Z,98411.72
2022-10-17T15:46:35.607Z,98414.03
2022-10-17T15:49:09.300Z,98422.75
2022-10-17T15:51:37.536Z,98420.09
2022-10-17T15:54:06.338Z,98418.28
2022-10-17T15:56:43.202Z,98423.38
2022-10-17T15:59:22.461Z,98424.09
2022-10-17T16:01:50.511Z,98432.19
2022-10-17T16:04:18.952Z,98440.47
2022-10-17T16:06:49.622Z,98443.56
2022-10-17T16:09:25.443Z,98450.22
2022-10-17T16:12:00.665Z,98440.75
2022-10-17T16:14:35.376Z,98449.28
2022-10-17T16:17:03.404Z,98441.72
2022-10-17T16:19:42.682Z,98442.09
2022-10-17T16:22:38.548Z,98439.94
2022-10-17T16:25:21.574Z,98440.28
2022-10-17T16:27:57.136Z,98432.69
2022-10-17T16:30:29.688Z,98443.91
2022-10-17T16:32:59.596Z,98442.13
2022-10-17T16:35:34.841Z,98442.94
2022-10-17T16:38:08.602Z,98450.13
2022-10-17T16:40:41.002Z,98460.53
2022-10-17T16:43:14.703Z,98456.81
2022-10-17T16:45:43.364Z,98462.22
2022-10-17T16:48:15.177Z,98458.84
2022-10-17T16:50:48.792Z,98466.47
2022-10-17T16:53:27.118Z,98465.72
2022-10-17T16:56:05.262Z,98467.34
2022-10-17T16:58:35.591Z,98481.47
2022-10-17T17:01:28.405Z,98477.16
2022-10-17T17:04:00.787Z,98478.84
2022-10-17T17:06:31.879Z,98481.50
2022-10-17T17:09:07.966Z,98485.56
2022-10-17T17:11:41.895Z,98488.34
2022-10-17T17:14:14.125Z,98492.78
2022-10-17T17:16:43.381Z,98485.06
2022-10-17T17:19:16.966Z,98484.31
2022-10-17T17:21:50.078Z,98481.66
2022-10-17T17:24:21.161Z,98481.34
2022-10-17T17:26:54.791Z,98490.59
2022-10-17T17:29:24.556Z,98484.94
2022-10-17T17:31:52.532Z,98492.09
2022-10-17T17:34:20.370Z,98495.88
2022-10-17T17:36:48.170Z,98491.47
2022-10-17T17:39:16.841Z,98494.03
2022-10-17T17:41:45.768Z,98501.19
2022-10-17T17:44:16.713Z,98492.63
2022-10-17T17:46:45.707Z,98497.88
2022-10-17T17:49:14.177Z,98494.78
2022-10-17T17:51:46.076Z,98494.16
2022-10-17T17:54:15.205Z,98504.59
2022-10-17T17:56:43.106Z,98510.72
2022-10-17T17:59:13.469Z,98506.78
2022-10-17T18:01:41.665Z,98508.25
2022-10-17T18:04:09.932Z,98512.06
2022-10-17T18:06:38.873Z,98516.00
2022-10-17T18:09:08.215Z,98517.13
2022-10-17T18:11:37.496Z,98524.59
2022-10-17T18:14:08.441Z,98529.41
2022-10-17T18:16:37.655Z,98528.19
2022-10-17T18:19:09.109Z,98533.16
2022-10-17T18:21:37.895Z,98534.66
2022-10-17T18:24:06.970Z,98530.91
2022-10-17T18:26:35.073Z,98526.75
2022-10-17T18:29:03.826Z,98527.81
2022-10-17T18:31:37.467Z,98537.81
2022-10-17T18:34:06.780Z,98548.44
2022-10-17T18:36:35.577Z,98541.16
2022-10-17T18:39:05.223Z,98547.63
2022-10-17T18:41:33.745Z,98547.00
2022-10-17T18:44:03.119Z,98551.56
2022-10-17T18:46:41.015Z,98545.53
2022-10-17T18:49:15.778Z,98549.53
2022-10-17T18:51:43.602Z,98549.09
2022-10-17T18:54:20.519Z,98556.00
2022-10-17T18:56:52.142Z,98549.56
2022-10-17T18:59:20.970Z,98551.03
2022-10-17T19:01:48.944Z,98555.00
2022-10-17T19:04:17.153Z,98557.91
2022-10-17T19:06:45.257Z,98560.41
2022-10-17T19:09:14.471Z,98559.16
2022-10-17T19:11:42.930Z,98557.94
2022-10-17T19:14:13.526Z,98554.41
2022-10-17T19:16:49.076Z,98556.47
2022-10-17T19:19:24.308Z,98556.91
2022-10-17T19:21:53.217Z,98558.34
2022-10-17T19:24:26.924Z,98556.72
2022-10-17T19:26:57.950Z,98559.81
2022-10-17T19:29:31.197Z,98551.06
2022-10-17T19:32:00.564Z,98554.19
2022-10-17T19:34:28.618Z,98549.84
2022-10-17T19:36:56.396Z,98542.72
2022-10-17T19:39:25.199Z,98543.13
2022-10-17T19:41:53.034Z,98543.34
2022-10-17T19:44:20.835Z,98536.47
2022-10-17T19:46:49.331Z,98539.19
2022-10-17T19:49:18.009Z,98534.19
2022-10-17T19:51:46.545Z,98530.03
2022-10-17T19:54:16.547Z,98530.41
2022-10-17T19:56:44.385Z,98529.81
2022-10-17T19:59:15.012Z,98532.91
2022-10-17T20:01:43.956Z,98532.53
2022-10-17T20:04:13.204Z,98538.34
2022-10-17T20:06:41.816Z,98534.19
2022-10-17T20:09:15.710Z,98531.88
2022-10-17T20:11:45.253Z,98539.38
2022-10-17T20:14:13.179Z,98537.94
2022-10-17T20:16:40.964Z,98540.22
2022-10-17T20:19:11.969Z,98536.25
2022-10-17T20:21:40.300Z,98538.34
2022-10-17T20:24:14.311Z,98541.44
2022-10-17T20:26:42.853Z,98539.34
2022-10-17T20:29:20.838Z,98540.19
2022-10-17T20:31:48.882Z,98550.81
2022-10-17T20:34:19.462Z,98545.19
2022-10-17T20:36:48.408Z,98553.75
2022-10-17T20:39:18.768Z,98552.28
2022-10-17T20:41:47.233Z,98549.38
2022-10-17T20:44:15.475Z,98557.06
2022-10-17T20:47:00.707Z,98562.91
2022-10-17T20:49:30.568Z,98565.22
2022-10-17T20:51:59.706Z,98557.28
2022-10-17T20:54:28.612Z,98561.03
2022-10-17T20:56:58.723Z,98557.50
2022-10-17T20:59:29.071Z,98555.41
2022-10-17T21:01:56.884Z,98555.59
2022-10-17T21:04:45.541Z,98561.88
2022-10-17T21:07:12.539Z,98560.00
2022-10-17T21:09:40.421Z,98557.94
2022-10-17T21:12:08.301Z,98556.88
2022-10-17T21:14:36.469Z,98552.50
2022-10-17T21:17:05.477Z,98558.56
2022-10-17T21:19:34.054Z,98555.41
2022-10-17T21:22:01.950Z,98559.38
2022-10-17T21:24:30.565Z,98560.00
2022-10-17T21:26:59.073Z,98557.09
2022-10-17T21:29:27.144Z,98557.09
2022-10-17T21:31:54.997Z,98557.28
2022-10-17T21:34:25.128Z,98556.47
2022-10-17T21:36:53.531Z,98561.44
2022-10-17T21:39:22.932Z,98563.75
2022-10-17T21:41:52.018Z,98564.78
2022-10-17T21:44:26.470Z,98571.88
2022-10-17T21:46:55.752Z,98572.69
2022-10-17T21:49:25.745Z,98570.19
2022-10-17T21:51:53.809Z,98568.34
2022-10-17T21:54:25.824Z,98558.94
2022-10-17T21:56:53.610Z,98557.09
2022-10-17T21:59:21.403Z,98558.94
2022-10-17T22:01:49.267Z,98560.81
2022-10-17T22:04:19.671Z,98554.59
2022-10-17T22:06:51.301Z,98555.41
2022-10-17T22:09:25.677Z,98554.38
2022-10-17T22:11:56.640Z,98557.09
2022-10-17T22:14:26.639Z,98547.91
2022-10-17T22:16:55.532Z,98549.59
2022-10-17T22:19:26.528Z,98556.66
2022-10-17T22:21:54.883Z,98547.91
2022-10-17T22:24:23.370Z,98540.84
2022-10-17T22:26:51.710Z,98545.41
2022-10-17T22:29:20.279Z,98541.03
2022-10-17T22:31:48.246Z,98541.25
2022-10-17T22:34:17.917Z,98535.84
2022-10-17T22:36:47.829Z,98532.31
2022-10-17T22:39:15.868Z,98530.84
2022-10-17T22:41:43.976Z,98531.69
2022-10-17T22:44:11.800Z,98521.25
2022-10-17T22:46:39.571Z,98536.88
2022-10-17T22:49:07.390Z,98526.69
2022-10-17T22:51:35.202Z,98525.44
2022-10-17T22:54:03.081Z,98524.81
2022-10-17T22:56:30.973Z,98523.13
2022-10-17T22:58:58.820Z,98529.16
2022-10-17T23:01:26.929Z,98516.44
2022-10-17T23:03:54.990Z,98523.75
2022-10-17T23:06:23.253Z,98517.72
2022-10-17T23:08:51.437Z,98512.09
2022-10-17T23:11:20.827Z,98511.47
2022-10-17T23:13:49.140Z,98512.50
2022-10-17T23:16:17.156Z,98510.84
2022-10-17T23:18:45.350Z,98511.03
2022-10-17T23:21:13.219Z,98517.72
2022-10-17T23:23:41.028Z,98501.47
2022-10-17T23:26:13.869Z,98500.63
2022-10-17T23:28:42.992Z,98495.44
2022-10-17T23:31:19.760Z,98498.94
2022-10-17T23:33:49.766Z,98497.28
2022-10-17T23:36:20.620Z,98490.19
2022-10-17T23:38:49.155Z,98491.88
2022-10-17T23:41:17.304Z,98490.19
2022-10-17T23:43:45.235Z,98492.91
2022-10-17T23:46:13.501Z,98497.50
2022-10-17T23:48:41.912Z,98488.94
2022-10-17T23:51:11.125Z,98494.78
2022-10-17T23:53:40.463Z,98487.09
2022-10-17T23:56:10.276Z,98496.88
2022-10-17T23:58:39.468Z,98496.88
